createdAt,value
2019-03-26T00:00:58.800Z,0.00
2019-03-26T00:01:58.776Z,0.00
2019-03-26T00:02:58.769Z,0.00
2019-03-26T00:04:05.698Z,0.00
2019-03-26T00:04:58.776Z,0.00
2019-03-26T00:05:58.690Z,0.00
2019-03-26T00:06:58.684Z,0.00
2019-03-26T00:07:58.632Z,0.00
2019-03-26T00:08:58.620Z,0.00
2019-03-26T00:09:58.577Z,0.00
2019-03-26T00:10:58.577Z,0.00
2019-03-26T00:11:58.545Z,0.00
2019-03-26T00:12:58.511Z,0.00
2019-03-26T00:13:58.494Z,0.00
2019-03-26T00:14:58.465Z,0.00
2019-03-26T00:15:58.462Z,0.00
2019-03-26T00:16:58.414Z,0.00
2019-03-26T00:17:58.408Z,0.00
2019-03-26T00:18:58.363Z,0.00
2019-03-26T00:19:58.353Z,0.00
2019-03-26T00:20:58.327Z,0.00
2019-03-26T00:21:58.296Z,0.00
2019-03-26T00:22:58.276Z,0.00
2019-03-26T00:23:58.326Z,0.00
2019-03-26T00:24:58.225Z,0.00
2019-03-26T00:25:58.199Z,0.00
2019-03-26T00:26:58.175Z,0.00
2019-03-26T00:27:58.170Z,0.00
2019-03-26T00:28:58.122Z,0.00
2019-03-26T00:29:58.102Z,0.00
2019-03-26T00:30:58.102Z,0.00
2019-03-26T00:31:58.076Z,0.00
2019-03-26T00:32:58.038Z,0.00
2019-03-26T00:33:58.018Z,0.00
2019-03-26T00:34:58.019Z,0.00
2019-03-26T00:35:57.969Z,0.00
2019-03-26T00:36:57.936Z,0.00
2019-03-26T00:37:57.914Z,0.00
2019-03-26T00:38:57.889Z,0.00
2019-03-26T00:39:57.869Z,0.00
2019-03-26T00:40:57.853Z,0.00
2019-03-26T00:41:57.814Z,0.00
2019-03-26T00:42:57.797Z,0.00
2019-03-26T00:43:57.783Z,0.00
2019-03-26T00:44:57.745Z,0.00
2019-03-26T00:45:57.723Z,0.00
2019-03-26T00:46:57.706Z,0.00
2019-03-26T00:48:06.536Z,0.00
2019-03-26T00:49:51.128Z,0.00
2019-03-26T00:50:50.995Z,0.00
2019-03-26T00:51:50.953Z,0.00
2019-03-26T00:52:50.944Z,0.00
2019-03-26T00:53:50.921Z,0.00
2019-03-26T00:54:50.892Z,0.00
2019-03-26T00:55:50.851Z,0.00
2019-03-26T00:56:50.841Z,0.00
2019-03-26T00:57:50.827Z,0.00
2019-03-26T00:58:50.796Z,0.00
2019-03-26T00:59:50.759Z,0.00
2019-03-26T01:00:50.771Z,0.00
2019-03-26T01:01:50.838Z,0.00
2019-03-26T01:02:50.711Z,0.00
2019-03-26T01:03:50.817Z,0.00
2019-03-26T01:04:50.650Z,0.00
2019-03-26T01:05:59.311Z,0.00
2019-03-26T01:07:43.979Z,0.00
2019-03-26T01:08:44.082Z,0.00
2019-03-26T01:09:43.919Z,0.00
2019-03-26T01:10:43.883Z,0.00
2019-03-26T01:11:43.867Z,0.00
2019-03-26T01:12:43.826Z,0.00
2019-03-26T01:13:43.819Z,0.00
2019-03-26T01:14:43.796Z,0.00
2019-03-26T01:15:43.779Z,0.00
2019-03-26T01:16:43.744Z,0.00
2019-03-26T01:17:43.737Z,0.00
2019-03-26T01:18:43.788Z,0.00
2019-03-26T01:19:43.672Z,0.00
2019-03-26T01:20:43.651Z,0.00
2019-03-26T01:21:43.625Z,0.00
2019-03-26T01:22:43.599Z,0.00
2019-03-26T01:23:43.587Z,0.00
2019-03-26T01:24:43.557Z,0.00
2019-03-26T01:25:43.528Z,0.00
2019-03-26T01:26:43.655Z,0.00
2019-03-26T01:27:43.484Z,0.00
2019-03-26T01:28:43.453Z,0.00
2019-03-26T01:29:43.422Z,0.00
2019-03-26T01:30:43.402Z,0.00
2019-03-26T01:31:43.476Z,0.00
2019-03-26T01:32:43.361Z,0.00
2019-03-26T01:33:43.329Z,0.00
2019-03-26T01:34:46.232Z,0.00
2019-03-26T01:35:43.299Z,0.00
2019-03-26T01:36:43.259Z,0.00
2019-03-26T01:37:43.241Z,0.00
2019-03-26T01:38:43.233Z,0.00
2019-03-26T01:39:43.182Z,0.00
2019-03-26T01:40:43.172Z,0.00
2019-03-26T01:41:43.159Z,0.00
2019-03-26T01:42:43.119Z,0.00
2019-03-26T01:43:43.092Z,0.00
2019-03-26T01:44:43.070Z,0.00
2019-03-26T01:45:43.041Z,0.00
2019-03-26T01:46:43.016Z,0.00
2019-03-26T01:47:42.993Z,0.00
2019-03-26T01:48:42.982Z,0.00
2019-03-26T01:49:42.975Z,0.00
2019-03-26T01:50:42.924Z,0.00
2019-03-26T01:51:42.905Z,0.00
2019-03-26T01:52:42.883Z,0.00
2019-03-26T01:53:42.870Z,0.00
2019-03-26T01:54:42.844Z,0.00
2019-03-26T01:55:42.806Z,0.00
2019-03-26T01:56:42.784Z,0.00
2019-03-26T01:57:42.762Z,0.00
2019-03-26T01:58:42.733Z,0.00
2019-03-26T01:59:42.715Z,0.00
2019-03-26T02:00:42.696Z,0.00
2019-03-26T02:01:42.660Z,0.00
2019-03-26T02:02:42.641Z,0.00
2019-03-26T02:03:42.631Z,0.00
2019-03-26T02:04:42.585Z,0.00
2019-03-26T02:05:42.564Z,0.00
2019-03-26T02:06:42.543Z,0.00
2019-03-26T02:07:42.521Z,0.00
2019-03-26T02:08:42.508Z,0.00
2019-03-26T02:09:42.486Z,0.00
2019-03-26T02:10:42.445Z,0.00
2019-03-26T02:11:42.434Z,0.00
2019-03-26T02:12:42.393Z,0.00
2019-03-26T02:13:42.372Z,0.00
2019-03-26T02:14:42.349Z,0.00
2019-03-26T02:15:42.334Z,0.00
2019-03-26T02:16:42.299Z,0.00
2019-03-26T02:17:42.295Z,0.00
2019-03-26T02:18:42.258Z,0.00
2019-03-26T02:19:42.231Z,0.00
2019-03-26T02:20:42.215Z,0.00
2019-03-26T02:21:42.181Z,0.00
2019-03-26T02:22:42.190Z,0.00
2019-03-26T02:23:42.135Z,0.00
2019-03-26T02:24:42.115Z,0.00
2019-03-26T02:25:42.102Z,0.00
2019-03-26T02:26:42.077Z,0.00
2019-03-26T02:27:42.044Z,0.00
2019-03-26T02:28:42.025Z,0.00
2019-03-26T02:29:42.005Z,0.00
2019-03-26T02:30:41.975Z,0.00
2019-03-26T02:31:41.942Z,0.00
2019-03-26T02:32:41.936Z,0.00
2019-03-26T02:33:41.903Z,0.00
2019-03-26T02:34:41.879Z,0.00
2019-03-26T02:35:41.852Z,0.00
2019-03-26T02:36:41.837Z,0.00
2019-03-26T02:37:41.798Z,0.00
2019-03-26T02:38:41.772Z,0.00
2019-03-26T02:39:41.851Z,0.00
2019-03-26T02:40:41.725Z,0.00
2019-03-26T02:41:41.715Z,0.00
2019-03-26T02:42:41.674Z,0.00
2019-03-26T02:43:41.666Z,0.00
2019-03-26T02:44:41.636Z,0.00
2019-03-26T02:45:41.622Z,0.00
2019-03-26T02:46:41.612Z,0.00
2019-03-26T02:47:41.565Z,0.00
2019-03-26T02:48:41.545Z,0.00
2019-03-26T02:49:41.522Z,0.00
2019-03-26T02:50:41.481Z,0.00
2019-03-26T02:51:41.487Z,0.00
2019-03-26T02:52:41.467Z,0.00
2019-03-26T02:53:41.436Z,0.00
2019-03-26T02:54:41.397Z,0.00
2019-03-26T02:55:41.368Z,0.00
2019-03-26T02:56:41.342Z,0.00
2019-03-26T02:57:41.332Z,0.00
2019-03-26T02:58:41.288Z,0.00
2019-03-26T02:59:41.300Z,0.00
2019-03-26T03:00:41.248Z,0.00
2019-03-26T03:01:41.220Z,0.00
2019-03-26T03:02:41.227Z,0.00
2019-03-26T03:03:41.179Z,0.00
2019-03-26T03:04:41.147Z,0.00
2019-03-26T03:05:41.138Z,0.00
2019-03-26T03:06:41.100Z,0.00
2019-03-26T03:07:41.077Z,0.00
2019-03-26T03:08:41.052Z,0.00
2019-03-26T03:09:41.034Z,0.00
2019-03-26T03:10:41.019Z,0.00
2019-03-26T03:11:40.978Z,0.00
2019-03-26T03:12:40.959Z,0.00
2019-03-26T03:13:40.927Z,0.00
2019-03-26T03:14:40.935Z,0.00
2019-03-26T03:15:40.877Z,0.00
2019-03-26T03:16:40.864Z,0.00
2019-03-26T03:17:40.834Z,0.00
2019-03-26T03:18:40.796Z,0.00
2019-03-26T03:19:40.792Z,0.00
2019-03-26T03:20:40.758Z,0.00
2019-03-26T03:21:40.733Z,0.00
2019-03-26T03:22:40.727Z,0.00
2019-03-26T03:23:40.684Z,0.00
2019-03-26T03:24:40.671Z,0.00
2019-03-26T03:25:40.638Z,0.00
2019-03-26T03:26:40.608Z,0.00
2019-03-26T03:27:40.579Z,0.00
2019-03-26T03:28:40.586Z,0.00
2019-03-26T03:29:40.582Z,0.00
2019-03-26T03:30:40.513Z,0.00
2019-03-26T03:31:40.484Z,0.00
2019-03-26T03:32:40.469Z,0.00
2019-03-26T03:33:40.439Z,0.00
2019-03-26T03:34:40.408Z,0.00
2019-03-26T03:35:52.033Z,0.00
2019-03-26T03:36:40.367Z,0.00
2019-03-26T03:37:40.357Z,0.00
2019-03-26T03:38:41.606Z,0.00
2019-03-26T03:39:40.313Z,0.00
2019-03-26T03:40:40.261Z,0.00
2019-03-26T03:41:40.244Z,0.00
2019-03-26T03:42:40.223Z,0.00
2019-03-26T03:43:40.185Z,0.00
2019-03-26T03:44:40.157Z,0.00
2019-03-26T03:45:40.144Z,0.00
2019-03-26T03:46:40.133Z,0.00
2019-03-26T03:47:40.094Z,0.00
2019-03-26T03:48:40.065Z,0.00
2019-03-26T03:49:40.035Z,0.00
2019-03-26T03:50:40.019Z,0.00
2019-03-26T03:51:39.991Z,0.00
2019-03-26T03:52:39.967Z,0.00
2019-03-26T03:53:39.937Z,0.00
2019-03-26T03:54:39.905Z,0.00
2019-03-26T03:55:39.897Z,0.00
2019-03-26T03:56:39.857Z,0.00
2019-03-26T03:57:39.849Z,0.00
2019-03-26T03:58:39.820Z,0.00
2019-03-26T03:59:39.803Z,0.00
2019-03-26T04:00:39.763Z,0.00
2019-03-26T04:01:39.751Z,0.00
2019-03-26T04:02:39.706Z,0.00
2019-03-26T04:03:39.697Z,0.00
2019-03-26T04:04:39.661Z,0.00
2019-03-26T04:05:39.657Z,0.00
2019-03-26T04:06:39.639Z,0.00
2019-03-26T04:07:39.612Z,0.00
2019-03-26T04:08:39.581Z,0.00
2019-03-26T04:09:39.535Z,0.00
2019-03-26T04:10:39.527Z,0.00
2019-03-26T04:11:39.495Z,0.00
2019-03-26T04:12:39.466Z,0.00
2019-03-26T04:13:39.492Z,0.00
2019-03-26T04:14:39.411Z,0.00
2019-03-26T04:15:39.388Z,0.00
2019-03-26T04:16:39.373Z,0.00
2019-03-26T04:17:39.351Z,0.00
2019-03-26T04:18:39.316Z,0.00
2019-03-26T04:19:39.299Z,0.00
2019-03-26T04:20:39.286Z,0.00
2019-03-26T04:21:39.245Z,0.00
2019-03-26T04:22:39.209Z,0.00
2019-03-26T04:23:39.197Z,0.00
2019-03-26T04:24:39.188Z,0.00
2019-03-26T04:25:39.151Z,0.00
2019-03-26T04:26:39.125Z,0.00
2019-03-26T04:27:39.087Z,0.00
2019-03-26T04:28:39.070Z,0.00
2019-03-26T04:29:39.036Z,0.00
2019-03-26T04:30:39.013Z,0.00
2019-03-26T04:31:39.004Z,0.00
2019-03-26T04:32:38.966Z,0.00
2019-03-26T04:33:38.938Z,0.00
2019-03-26T04:34:38.916Z,0.00
2019-03-26T04:35:38.895Z,0.00
2019-03-26T04:36:38.869Z,0.00
2019-03-26T04:37:38.833Z,0.00
2019-03-26T04:38:39.069Z,0.00
2019-03-26T04:39:38.796Z,0.00
2019-03-26T04:40:38.770Z,0.00
2019-03-26T04:41:38.767Z,0.00
2019-03-26T04:42:38.719Z,0.00
2019-03-26T04:43:38.734Z,0.00
2019-03-26T04:44:38.693Z,0.00
2019-03-26T04:45:38.642Z,0.00
2019-03-26T04:46:38.638Z,0.00
2019-03-26T04:47:38.600Z,0.00
2019-03-26T04:48:38.642Z,0.00
2019-03-26T04:49:38.562Z,0.00
2019-03-26T04:50:38.520Z,0.00
2019-03-26T04:51:38.501Z,0.00
2019-03-26T04:52:38.473Z,0.00
2019-03-26T04:53:38.458Z,0.00
2019-03-26T04:54:38.431Z,0.00
2019-03-26T04:55:38.393Z,0.00
2019-03-26T04:56:38.374Z,0.00
2019-03-26T04:57:38.361Z,0.00
2019-03-26T04:58:38.332Z,0.00
2019-03-26T04:59:38.300Z,0.00
2019-03-26T05:00:38.268Z,0.00
2019-03-26T05:01:38.258Z,0.00
2019-03-26T05:02:38.234Z,0.00
2019-03-26T05:03:38.203Z,0.00
2019-03-26T05:04:38.183Z,0.00
2019-03-26T05:05:38.173Z,0.00
2019-03-26T05:06:38.519Z,0.00
2019-03-26T05:07:38.138Z,5.63
2019-03-26T05:08:38.077Z,5.63
2019-03-26T05:09:38.055Z,5.63
2019-03-26T05:10:38.029Z,5.63
2019-03-26T05:11:38.009Z,5.63
2019-03-26T05:12:37.979Z,5.63
2019-03-26T05:13:37.998Z,5.63
2019-03-26T05:14:37.928Z,11.25
2019-03-26T05:15:37.918Z,11.25
2019-03-26T05:16:37.873Z,11.25
2019-03-26T05:17:37.853Z,11.25
2019-03-26T05:18:37.831Z,11.25
2019-03-26T05:19:37.806Z,11.25
2019-03-26T05:20:37.773Z,16.88
2019-03-26T05:21:37.770Z,16.88
2019-03-26T05:22:37.725Z,16.88
2019-03-26T05:23:37.699Z,16.88
2019-03-26T05:24:37.671Z,16.88
2019-03-26T05:25:37.651Z,16.88
2019-03-26T05:26:37.632Z,22.50
2019-03-26T05:27:45.296Z,22.50
2019-03-26T05:28:37.594Z,22.50
2019-03-26T05:29:37.557Z,22.50
2019-03-26T05:30:37.538Z,28.13
2019-03-26T05:31:37.496Z,28.13
2019-03-26T05:32:37.486Z,33.75
2019-03-26T05:33:37.453Z,33.75
2019-03-26T05:34:37.429Z,39.38
2019-03-26T05:35:37.409Z,39.38
2019-03-26T05:36:50.382Z,39.38
2019-03-26T05:37:37.360Z,39.38
2019-03-26T05:38:37.351Z,45.00
2019-03-26T05:39:37.300Z,45.00
2019-03-26T05:40:37.290Z,50.63
2019-03-26T05:41:37.261Z,50.63
2019-03-26T05:42:37.272Z,50.63
2019-03-26T05:43:37.210Z,50.63
2019-03-26T05:44:37.184Z,56.25
2019-03-26T05:45:37.159Z,61.88
2019-03-26T05:46:37.136Z,67.50
2019-03-26T05:47:37.109Z,67.50
2019-03-26T05:48:37.093Z,73.13
2019-03-26T05:49:37.075Z,73.13
2019-03-26T05:50:37.052Z,73.13
2019-03-26T05:51:37.008Z,73.13
2019-03-26T05:52:36.993Z,73.13
2019-03-26T05:53:36.964Z,78.75
2019-03-26T05:54:36.934Z,84.38
2019-03-26T05:55:36.918Z,90.00
2019-03-26T05:56:36.896Z,90.00
2019-03-26T05:57:36.873Z,95.63
2019-03-26T05:58:36.879Z,101.25
2019-03-26T05:59:36.818Z,101.25
2019-03-26T06:00:36.787Z,112.50
2019-03-26T06:01:36.774Z,112.50
2019-03-26T06:02:37.617Z,118.13
2019-03-26T06:03:36.716Z,123.75
2019-03-26T06:04:36.687Z,123.75
2019-03-26T06:05:36.690Z,129.38
2019-03-26T06:06:36.645Z,129.38
2019-03-26T06:07:36.614Z,129.38
2019-03-26T06:08:36.594Z,135.00
2019-03-26T06:09:36.590Z,140.63
2019-03-26T06:10:36.554Z,140.63
2019-03-26T06:11:36.519Z,140.63
2019-03-26T06:12:36.494Z,140.63
2019-03-26T06:13:36.476Z,146.25
2019-03-26T06:14:36.442Z,151.88
2019-03-26T06:15:36.420Z,151.88
2019-03-26T06:16:38.658Z,151.88
2019-03-26T06:17:36.380Z,151.88
2019-03-26T06:18:36.348Z,157.50
2019-03-26T06:19:36.349Z,157.50
2019-03-26T06:20:36.313Z,163.13
2019-03-26T06:21:36.288Z,163.13
2019-03-26T06:22:36.277Z,163.13
2019-03-26T06:23:36.238Z,168.75
2019-03-26T06:24:36.204Z,168.75
2019-03-26T06:25:36.189Z,180.00
2019-03-26T06:26:36.156Z,185.63
2019-03-26T06:27:36.139Z,191.25
2019-03-26T06:28:36.111Z,196.88
2019-03-26T06:29:36.105Z,202.50
2019-03-26T06:30:36.055Z,208.13
2019-03-26T06:31:36.057Z,213.75
2019-03-26T06:32:36.020Z,225.00
2019-03-26T06:33:35.993Z,230.63
2019-03-26T06:34:35.968Z,236.25
2019-03-26T06:35:35.961Z,241.88
2019-03-26T06:36:35.994Z,241.88
2019-03-26T06:37:35.916Z,247.50
2019-03-26T06:38:35.884Z,241.88
2019-03-26T06:39:35.844Z,241.88
2019-03-26T06:40:35.830Z,236.25
2019-03-26T06:41:35.817Z,230.63
2019-03-26T06:42:35.780Z,230.63
2019-03-26T06:43:35.777Z,236.25
2019-03-26T06:44:35.749Z,241.88
2019-03-26T06:45:35.713Z,247.50
2019-03-26T06:46:35.687Z,258.75
2019-03-26T06:47:35.684Z,253.13
2019-03-26T06:48:35.642Z,270.00
2019-03-26T06:49:35.630Z,281.25
2019-03-26T06:50:35.594Z,281.25
2019-03-26T06:51:35.563Z,275.63
2019-03-26T06:52:35.541Z,275.63
2019-03-26T06:53:35.528Z,275.63
2019-03-26T06:54:35.494Z,275.63
2019-03-26T06:55:35.475Z,286.88
2019-03-26T06:56:35.455Z,292.50
2019-03-26T06:57:36.126Z,292.50
2019-03-26T06:58:35.426Z,292.50
2019-03-26T06:59:35.402Z,292.50
2019-03-26T07:00:35.349Z,281.25
2019-03-26T07:01:35.335Z,275.63
2019-03-26T07:02:35.309Z,264.38
2019-03-26T07:03:35.303Z,241.88
2019-03-26T07:04:35.287Z,225.00
2019-03-26T07:05:35.241Z,213.75
2019-03-26T07:06:35.217Z,208.13
2019-03-26T07:07:35.216Z,213.75
2019-03-26T07:08:35.170Z,219.38
2019-03-26T07:09:35.183Z,213.75
2019-03-26T07:10:35.120Z,208.13
2019-03-26T07:11:35.109Z,202.50
2019-03-26T07:12:35.080Z,208.13
2019-03-26T07:13:35.055Z,219.38
2019-03-26T07:14:35.033Z,213.75
2019-03-26T07:15:35.001Z,219.38
2019-03-26T07:16:34.977Z,225.00
2019-03-26T07:17:34.968Z,219.38
2019-03-26T07:18:34.939Z,213.75
2019-03-26T07:19:34.932Z,202.50
2019-03-26T07:20:34.897Z,202.50
2019-03-26T07:21:34.875Z,202.50
2019-03-26T07:22:34.850Z,208.13
2019-03-26T07:23:34.824Z,213.75
2019-03-26T07:24:34.794Z,236.25
2019-03-26T07:25:34.763Z,247.50
2019-03-26T07:26:34.746Z,264.38
2019-03-26T07:27:34.726Z,298.13
2019-03-26T07:28:34.695Z,331.88
2019-03-26T07:29:34.679Z,393.75
2019-03-26T07:30:34.676Z,438.75
2019-03-26T07:31:34.631Z,472.50
2019-03-26T07:32:34.637Z,483.75
2019-03-26T07:33:34.593Z,478.13
2019-03-26T07:34:34.589Z,472.50
2019-03-26T07:35:34.542Z,461.25
2019-03-26T07:36:34.564Z,444.38
2019-03-26T07:37:44.504Z,461.25
2019-03-26T07:38:34.497Z,466.88
2019-03-26T07:39:34.458Z,472.50
2019-03-26T07:40:34.445Z,483.75
2019-03-26T07:41:34.464Z,500.63
2019-03-26T07:42:34.387Z,511.88
2019-03-26T07:43:34.390Z,511.88
2019-03-26T07:44:34.343Z,523.13
2019-03-26T07:45:34.322Z,523.13
2019-03-26T07:46:34.311Z,500.63
2019-03-26T07:47:34.282Z,500.63
2019-03-26T07:48:34.259Z,511.88
2019-03-26T07:49:34.244Z,511.88
2019-03-26T07:50:34.218Z,511.88
2019-03-26T07:51:34.196Z,534.38
2019-03-26T07:52:34.178Z,540.00
2019-03-26T07:53:34.147Z,534.38
2019-03-26T07:54:34.127Z,528.75
2019-03-26T07:55:34.104Z,540.00
2019-03-26T07:56:34.088Z,534.38
2019-03-26T07:57:34.072Z,528.75
2019-03-26T07:58:34.059Z,534.38
2019-03-26T07:59:34.034Z,540.00
2019-03-26T08:00:34.031Z,540.00
2019-03-26T08:01:33.984Z,551.25
2019-03-26T08:02:33.955Z,556.88
2019-03-26T08:03:33.952Z,556.88
2019-03-26T08:04:33.935Z,545.63
2019-03-26T08:05:33.896Z,534.38
2019-03-26T08:06:33.875Z,540.00
2019-03-26T08:07:33.862Z,551.25
2019-03-26T08:08:33.904Z,568.13
2019-03-26T08:09:33.888Z,590.63
2019-03-26T08:10:33.802Z,607.50
2019-03-26T08:11:33.774Z,618.75
2019-03-26T08:12:33.745Z,630.00
2019-03-26T08:13:33.735Z,624.38
2019-03-26T08:14:33.715Z,624.38
2019-03-26T08:15:33.692Z,618.75
2019-03-26T08:16:33.681Z,618.75
2019-03-26T08:17:33.672Z,607.50
2019-03-26T08:18:33.632Z,590.63
2019-03-26T08:19:33.600Z,562.50
2019-03-26T08:20:33.577Z,545.63
2019-03-26T08:21:33.552Z,556.88
2019-03-26T08:22:33.558Z,596.25
2019-03-26T08:23:33.524Z,630.00
2019-03-26T08:24:33.501Z,624.38
2019-03-26T08:25:33.954Z,618.75
2019-03-26T08:26:33.463Z,607.50
2019-03-26T08:27:33.431Z,613.13
2019-03-26T08:28:33.423Z,624.38
2019-03-26T08:29:33.398Z,635.63
2019-03-26T08:30:33.371Z,635.63
2019-03-26T08:31:33.349Z,635.63
2019-03-26T08:32:33.317Z,658.13
2019-03-26T08:33:33.337Z,669.38
2019-03-26T08:34:33.278Z,675.00
2019-03-26T08:35:33.274Z,680.63
2019-03-26T08:36:33.276Z,686.25
2019-03-26T08:37:33.251Z,669.38
2019-03-26T08:38:33.652Z,658.13
2019-03-26T08:39:33.177Z,646.88
2019-03-26T08:40:33.155Z,646.88
2019-03-26T08:41:33.141Z,652.50
2019-03-26T08:42:33.117Z,663.75
2019-03-26T08:43:33.104Z,675.00
2019-03-26T08:44:33.088Z,663.75
2019-03-26T08:45:33.069Z,635.63
2019-03-26T08:46:33.040Z,618.75
2019-03-26T08:47:33.015Z,613.13
2019-03-26T08:48:32.992Z,618.75
2019-03-26T08:49:32.991Z,613.13
2019-03-26T08:50:32.955Z,607.50
2019-03-26T08:51:32.936Z,601.88
2019-03-26T08:52:32.924Z,568.13
2019-03-26T08:53:32.902Z,483.75
2019-03-26T08:54:32.869Z,433.13
2019-03-26T08:55:32.850Z,427.50
2019-03-26T08:56:32.834Z,438.75
2019-03-26T08:57:32.818Z,444.38
2019-03-26T08:58:32.795Z,438.75
2019-03-26T08:59:32.769Z,455.63
2019-03-26T09:00:32.745Z,523.13
2019-03-26T09:01:32.761Z,590.63
2019-03-26T09:02:32.726Z,613.13
2019-03-26T09:03:32.704Z,540.00
2019-03-26T09:04:32.663Z,478.13
2019-03-26T09:05:32.646Z,466.88
2019-03-26T09:06:32.625Z,511.88
2019-03-26T09:07:32.603Z,601.88
2019-03-26T09:08:32.591Z,646.88
2019-03-26T09:09:32.556Z,652.50
2019-03-26T09:10:32.540Z,675.00
2019-03-26T09:11:32.521Z,675.00
2019-03-26T09:12:32.505Z,675.00
2019-03-26T09:13:32.480Z,703.13
2019-03-26T09:14:32.457Z,680.63
2019-03-26T09:15:32.442Z,641.25
2019-03-26T09:16:32.415Z,596.25
2019-03-26T09:17:32.414Z,590.63
2019-03-26T09:18:33.085Z,641.25
2019-03-26T09:19:32.374Z,742.50
2019-03-26T09:20:32.332Z,798.75
2019-03-26T09:21:32.755Z,748.13
2019-03-26T09:22:32.299Z,607.50
2019-03-26T09:23:32.281Z,556.88
2019-03-26T09:24:32.255Z,579.38
2019-03-26T09:25:32.226Z,635.63
2019-03-26T09:26:32.207Z,703.13
2019-03-26T09:27:32.195Z,793.13
2019-03-26T09:28:32.175Z,810.00
2019-03-26T09:29:32.191Z,776.25
2019-03-26T09:30:32.136Z,680.63
2019-03-26T09:31:32.122Z,585.00
2019-03-26T09:32:32.098Z,506.25
2019-03-26T09:33:32.090Z,489.38
2019-03-26T09:34:32.057Z,528.75
2019-03-26T09:35:32.056Z,590.63
2019-03-26T09:36:32.021Z,613.13
2019-03-26T09:37:31.995Z,641.25
2019-03-26T09:38:38.831Z,630.00
2019-03-26T09:39:31.950Z,641.25
2019-03-26T09:40:31.941Z,675.00
2019-03-26T09:41:31.931Z,663.75
2019-03-26T09:42:31.899Z,686.25
2019-03-26T09:43:31.873Z,697.50
2019-03-26T09:44:31.852Z,731.25
2019-03-26T09:45:31.835Z,798.75
2019-03-26T09:46:31.832Z,826.88
2019-03-26T09:47:31.803Z,720.00
2019-03-26T09:48:31.776Z,601.88
2019-03-26T09:49:31.747Z,511.88
2019-03-26T09:50:31.725Z,450.00
2019-03-26T09:51:31.716Z,410.63
2019-03-26T09:52:31.715Z,382.50
2019-03-26T09:53:31.683Z,360.00
2019-03-26T09:54:31.652Z,331.88
2019-03-26T09:55:31.626Z,298.13
2019-03-26T09:56:32.201Z,258.75
2019-03-26T09:57:31.629Z,236.25
2019-03-26T09:58:31.563Z,219.38
2019-03-26T09:59:31.542Z,208.13
2019-03-26T10:00:31.578Z,191.25
2019-03-26T10:01:31.502Z,180.00
2019-03-26T10:02:31.487Z,163.13
2019-03-26T10:03:31.464Z,146.25
2019-03-26T10:04:31.454Z,140.63
2019-03-26T10:05:31.430Z,140.63
2019-03-26T10:06:31.399Z,146.25
2019-03-26T10:07:31.410Z,157.50
2019-03-26T10:08:31.355Z,157.50
2019-03-26T10:09:31.349Z,163.13
2019-03-26T10:10:32.153Z,168.75
2019-03-26T10:11:31.290Z,174.38
2019-03-26T10:12:31.277Z,174.38
2019-03-26T10:13:31.280Z,180.00
2019-03-26T10:14:31.227Z,196.88
2019-03-26T10:15:31.227Z,202.50
2019-03-26T10:16:31.200Z,219.38
2019-03-26T10:17:31.157Z,236.25
2019-03-26T10:18:31.138Z,247.50
2019-03-26T10:19:31.147Z,253.13
2019-03-26T10:20:31.109Z,247.50
2019-03-26T10:21:31.076Z,241.88
2019-03-26T10:22:31.071Z,247.50
2019-03-26T10:23:31.061Z,258.75
2019-03-26T10:24:31.020Z,275.63
2019-03-26T10:25:30.989Z,286.88
2019-03-26T10:26:30.963Z,292.50
2019-03-26T10:27:30.934Z,298.13
2019-03-26T10:28:30.909Z,298.13
2019-03-26T10:29:31.315Z,303.75
2019-03-26T10:30:30.874Z,315.00
2019-03-26T10:31:30.857Z,326.25
2019-03-26T10:32:30.845Z,337.50
2019-03-26T10:33:30.813Z,360.00
2019-03-26T10:34:30.794Z,388.13
2019-03-26T10:35:30.806Z,416.25
2019-03-26T10:36:30.740Z,438.75
2019-03-26T10:37:30.715Z,472.50
2019-03-26T10:38:30.775Z,506.25
2019-03-26T10:39:30.673Z,540.00
2019-03-26T10:40:30.644Z,573.75
2019-03-26T10:41:30.615Z,596.25
2019-03-26T10:42:30.606Z,613.13
2019-03-26T10:43:30.581Z,624.38
2019-03-26T10:44:30.576Z,635.63
2019-03-26T10:45:30.589Z,652.50
2019-03-26T10:46:30.522Z,669.38
2019-03-26T10:47:30.493Z,691.88
2019-03-26T10:48:31.890Z,697.50
2019-03-26T10:49:30.441Z,686.25
2019-03-26T10:50:30.426Z,669.38
2019-03-26T10:51:30.407Z,669.38
2019-03-26T10:52:34.003Z,697.50
2019-03-26T10:53:30.373Z,736.88
2019-03-26T10:54:30.341Z,787.50
2019-03-26T10:55:30.322Z,815.63
2019-03-26T10:56:32.638Z,832.50
2019-03-26T10:57:30.286Z,860.63
2019-03-26T10:58:30.257Z,894.38
2019-03-26T10:59:30.238Z,905.63
2019-03-26T11:00:30.213Z,933.75
2019-03-26T11:01:30.197Z,933.75
2019-03-26T11:02:30.178Z,883.13
2019-03-26T11:03:30.174Z,866.25
2019-03-26T11:04:30.280Z,922.50
2019-03-26T11:05:30.145Z,990.00
2019-03-26T11:06:30.113Z,1040.63
2019-03-26T11:07:30.075Z,1057.50
2019-03-26T11:08:30.077Z,1085.63
2019-03-26T11:09:30.033Z,1125.00
2019-03-26T11:10:30.023Z,1170.00
2019-03-26T11:11:30.009Z,1400.63
2019-03-26T11:12:30.016Z,1642.50
2019-03-26T11:13:29.958Z,1597.50
2019-03-26T11:14:31.811Z,1620.00
2019-03-26T11:15:29.921Z,1839.38
2019-03-26T11:16:29.904Z,1878.75
2019-03-26T11:17:29.904Z,1912.50
2019-03-26T11:18:29.875Z,1861.88
2019-03-26T11:19:29.858Z,1558.13
2019-03-26T11:20:29.844Z,1513.13
2019-03-26T11:21:29.868Z,1136.25
2019-03-26T11:22:30.627Z,1040.63
2019-03-26T11:23:29.834Z,1096.88
2019-03-26T11:24:29.789Z,1316.25
2019-03-26T11:25:29.772Z,1215.00
2019-03-26T11:26:29.776Z,1288.13
2019-03-26T11:27:29.749Z,1276.88
2019-03-26T11:28:29.757Z,1265.63
2019-03-26T11:29:29.728Z,1288.13
2019-03-26T11:30:29.753Z,1355.63
2019-03-26T11:31:30.275Z,1507.50
2019-03-26T11:32:29.731Z,1333.13
2019-03-26T11:33:29.689Z,1518.75
2019-03-26T11:34:29.658Z,1546.88
2019-03-26T11:35:29.628Z,1653.75
2019-03-26T11:36:29.628Z,1490.63
2019-03-26T11:37:29.619Z,1018.13
2019-03-26T11:38:29.604Z,1113.75
2019-03-26T11:39:32.936Z,3071.25
2019-03-26T11:40:29.586Z,4297.50
2019-03-26T11:41:29.610Z,4421.25
2019-03-26T11:42:29.568Z,4095.00
2019-03-26T11:43:29.538Z,3920.63
2019-03-26T11:44:29.533Z,3808.13
2019-03-26T11:45:29.525Z,3577.50
2019-03-26T11:46:29.503Z,3240.00
2019-03-26T11:47:29.491Z,1434.38
2019-03-26T11:48:29.526Z,1023.75
2019-03-26T11:49:29.482Z,928.13
2019-03-26T11:50:29.476Z,973.13
2019-03-26T11:51:29.458Z,950.63
2019-03-26T11:52:29.449Z,922.50
2019-03-26T11:53:29.439Z,877.50
2019-03-26T11:54:29.438Z,804.38
2019-03-26T11:55:29.414Z,753.75
2019-03-26T11:56:29.410Z,714.38
2019-03-26T11:57:29.390Z,708.75
2019-03-26T11:58:30.726Z,697.50
2019-03-26T11:59:29.358Z,686.25
2019-03-26T12:00:29.345Z,675.00
2019-03-26T12:01:29.326Z,663.75
2019-03-26T12:02:29.325Z,669.38
2019-03-26T12:03:29.304Z,646.88
2019-03-26T12:04:29.300Z,652.50
2019-03-26T12:05:29.288Z,652.50
2019-03-26T12:06:29.255Z,646.88
2019-03-26T12:07:29.236Z,630.00
2019-03-26T12:08:29.221Z,624.38
2019-03-26T12:09:29.198Z,607.50
2019-03-26T12:10:29.189Z,596.25
2019-03-26T12:11:29.198Z,579.38
2019-03-26T12:12:29.148Z,556.88
2019-03-26T12:13:29.135Z,551.25
2019-03-26T12:14:29.131Z,545.63
2019-03-26T12:15:29.096Z,568.13
2019-03-26T12:16:29.080Z,596.25
2019-03-26T12:17:29.100Z,601.88
2019-03-26T12:18:29.052Z,613.13
2019-03-26T12:19:29.031Z,607.50
2019-03-26T12:20:29.010Z,630.00
2019-03-26T12:21:28.988Z,669.38
2019-03-26T12:22:31.350Z,708.75
2019-03-26T12:23:28.969Z,748.13
2019-03-26T12:24:28.943Z,759.38
2019-03-26T12:25:28.911Z,759.38
2019-03-26T12:26:28.895Z,765.00
2019-03-26T12:27:28.886Z,770.63
2019-03-26T12:28:28.873Z,759.38
2019-03-26T12:29:28.834Z,748.13
2019-03-26T12:30:28.828Z,736.88
2019-03-26T12:31:28.820Z,714.38
2019-03-26T12:32:28.809Z,703.13
2019-03-26T12:33:28.791Z,697.50
2019-03-26T12:34:28.742Z,691.88
2019-03-26T12:35:28.729Z,691.88
2019-03-26T12:36:39.364Z,708.75
2019-03-26T12:37:28.697Z,720.00
2019-03-26T12:38:28.668Z,731.25
2019-03-26T12:39:28.674Z,736.88
2019-03-26T12:40:28.626Z,708.75
2019-03-26T12:41:28.608Z,663.75
2019-03-26T12:42:28.593Z,658.13
2019-03-26T12:43:28.579Z,680.63
2019-03-26T12:44:28.557Z,703.13
2019-03-26T12:45:28.533Z,703.13
2019-03-26T12:46:28.528Z,714.38
2019-03-26T12:47:28.494Z,736.88
2019-03-26T12:48:28.475Z,742.50
2019-03-26T12:49:28.471Z,731.25
2019-03-26T12:50:28.439Z,703.13